createdAt,value
2019-03-04T00:00:36.250Z,1.00
2019-03-04T00:01:36.266Z,0.80
2019-03-04T00:02:36.225Z,0.70
2019-03-04T00:03:36.215Z,0.70
2019-03-04T00:04:36.203Z,1.00
2019-03-04T00:05:36.202Z,0.70
2019-03-04T00:06:36.181Z,0.70
2019-03-04T00:07:36.195Z,0.60
2019-03-04T00:08:36.158Z,1.10
2019-03-04T00:09:36.148Z,0.80
2019-03-04T00:10:36.135Z,1.00
2019-03-04T00:11:36.169Z,0.50
2019-03-04T00:12:36.114Z,1.40
2019-03-04T00:13:36.102Z,0.50
2019-03-04T00:14:36.090Z,0.80
2019-03-04T00:15:36.080Z,0.80
2019-03-04T00:16:36.070Z,0.70
2019-03-04T00:17:36.109Z,0.50
2019-03-04T00:18:36.046Z,1.10
2019-03-04T00:19:36.034Z,0.60
2019-03-04T00:20:36.024Z,0.50
2019-03-04T00:21:36.012Z,0.70
2019-03-04T00:22:36.000Z,0.50
2019-03-04T00:23:36.024Z,0.60
2019-03-04T00:24:35.981Z,0.90
2019-03-04T00:25:35.974Z,0.70
2019-03-04T00:26:35.954Z,0.70
2019-03-04T00:27:35.962Z,1.10
2019-03-04T00:28:35.952Z,0.80
2019-03-04T00:29:35.934Z,0.80
2019-03-04T00:30:35.913Z,0.70
2019-03-04T00:31:35.901Z,0.80
2019-03-04T00:32:35.889Z,1.00
2019-03-04T00:33:35.898Z,1.00
2019-03-04T00:34:35.867Z,1.00
2019-03-04T00:35:35.860Z,0.90
2019-03-04T00:36:35.844Z,0.70
2019-03-04T00:37:35.836Z,0.90
2019-03-04T00:38:35.907Z,1.10
2019-03-04T00:39:35.831Z,0.80
2019-03-04T00:40:35.823Z,1.00
2019-03-04T00:41:35.791Z,0.80
2019-03-04T00:42:35.778Z,0.60
2019-03-04T00:43:35.765Z,0.50
2019-03-04T00:44:35.779Z,0.90
2019-03-04T00:45:35.745Z,0.80
2019-03-04T00:46:35.786Z,0.90
2019-03-04T00:47:35.734Z,1.00
2019-03-04T00:48:35.715Z,0.80
2019-03-04T00:49:39.518Z,0.80
2019-03-04T00:50:35.707Z,0.60
2019-03-04T00:51:35.677Z,0.80
2019-03-04T00:52:35.667Z,0.70
2019-03-04T00:53:35.661Z,0.60
2019-03-04T00:54:35.642Z,0.90
2019-03-04T00:55:35.655Z,0.70
2019-03-04T00:56:35.641Z,0.90
2019-03-04T00:57:35.612Z,1.30
2019-03-04T00:58:35.599Z,0.90
2019-03-04T00:59:35.594Z,0.80
2019-03-04T01:00:35.583Z,1.10
2019-03-04T01:01:35.590Z,0.70
2019-03-04T01:02:35.554Z,0.70
2019-03-04T01:03:35.543Z,1.00
2019-03-04T01:04:35.533Z,0.90
2019-03-04T01:05:35.528Z,0.80
2019-03-04T01:06:35.517Z,0.60
2019-03-04T01:07:35.516Z,1.00
2019-03-04T01:08:35.487Z,0.80
2019-03-04T01:09:35.477Z,0.70
2019-03-04T01:10:35.465Z,0.70
2019-03-04T01:11:35.461Z,0.90
2019-03-04T01:12:35.461Z,1.10
2019-03-04T01:13:35.434Z,0.80
2019-03-04T01:14:35.423Z,0.50
2019-03-04T01:15:35.411Z,0.80
2019-03-04T01:16:35.398Z,0.70
2019-03-04T01:17:35.418Z,0.60
2019-03-04T01:18:35.377Z,1.10
2019-03-04T01:19:35.366Z,0.90
2019-03-04T01:20:35.354Z,0.70
2019-03-04T01:21:35.363Z,0.70
2019-03-04T01:22:35.330Z,0.70
2019-03-04T01:23:35.351Z,0.80
2019-03-04T01:24:35.309Z,0.70
2019-03-04T01:25:35.300Z,1.00
2019-03-04T01:26:35.287Z,0.90
2019-03-04T01:27:35.274Z,1.10
2019-03-04T01:28:35.334Z,0.60
2019-03-04T01:29:35.256Z,0.80
2019-03-04T01:30:35.243Z,0.70
2019-03-04T01:31:35.232Z,0.90
2019-03-04T01:32:35.215Z,0.40
2019-03-04T01:33:35.225Z,0.80
2019-03-04T01:34:35.194Z,1.10
2019-03-04T01:35:35.217Z,0.70
2019-03-04T01:36:35.172Z,0.80
2019-03-04T01:37:35.167Z,0.60
2019-03-04T01:38:35.155Z,0.70
2019-03-04T01:39:35.136Z,0.70
2019-03-04T01:40:35.124Z,0.70
2019-03-04T01:41:35.152Z,0.50
2019-03-04T01:42:35.102Z,0.60
2019-03-04T01:43:35.090Z,0.60
2019-03-04T01:44:35.081Z,0.90
2019-03-04T01:45:35.070Z,1.00
2019-03-04T01:46:35.058Z,0.80
2019-03-04T01:47:35.074Z,0.50
2019-03-04T01:48:35.036Z,0.80
2019-03-04T01:49:35.024Z,0.90
2019-03-04T01:50:35.014Z,0.70
2019-03-04T01:51:35.027Z,0.50
2019-03-04T01:52:34.989Z,0.90
2019-03-04T01:53:34.983Z,0.80
2019-03-04T01:54:34.965Z,0.90
2019-03-04T01:55:34.953Z,0.70
2019-03-04T01:56:34.990Z,0.70
2019-03-04T01:57:34.933Z,0.90
2019-03-04T01:58:34.923Z,0.90
2019-03-04T01:59:34.917Z,0.50
2019-03-04T02:00:34.899Z,1.00
2019-03-04T02:01:34.893Z,0.60
2019-03-04T02:02:34.917Z,0.50
2019-03-04T02:03:34.873Z,0.60
2019-03-04T02:04:34.852Z,0.80
2019-03-04T02:05:34.851Z,0.80
2019-03-04T02:06:34.829Z,0.50
2019-03-04T02:07:34.819Z,0.90
2019-03-04T02:08:34.829Z,0.80
2019-03-04T02:09:34.795Z,1.00
2019-03-04T02:10:34.785Z,0.90
2019-03-04T02:11:34.830Z,0.80
2019-03-04T02:12:34.762Z,0.60
2019-03-04T02:13:34.755Z,0.70
2019-03-04T02:14:34.739Z,0.50
2019-03-04T02:15:34.740Z,0.90
2019-03-04T02:16:34.718Z,0.90
2019-03-04T02:17:34.740Z,0.70
2019-03-04T02:18:34.697Z,0.60
2019-03-04T02:19:34.681Z,0.60
2019-03-04T02:20:34.672Z,0.80
2019-03-04T02:21:34.669Z,0.50
2019-03-04T02:22:34.652Z,0.40
2019-03-04T02:23:34.772Z,0.70
2019-03-04T02:24:34.634Z,0.60
2019-03-04T02:25:34.614Z,0.80
2019-03-04T02:26:34.607Z,1.00
2019-03-04T02:27:34.591Z,0.50
2019-03-04T02:28:34.580Z,0.50
2019-03-04T02:29:34.594Z,0.90
2019-03-04T02:30:34.560Z,0.70
2019-03-04T02:31:34.549Z,0.80
2019-03-04T02:32:34.537Z,0.50
2019-03-04T02:33:34.542Z,0.70
2019-03-04T02:34:34.511Z,0.50
2019-03-04T02:35:34.519Z,0.80
2019-03-04T02:36:34.488Z,0.70
2019-03-04T02:37:34.486Z,0.80
2019-03-04T02:38:34.501Z,0.70
2019-03-04T02:39:34.477Z,0.80
2019-03-04T02:40:34.444Z,0.90
2019-03-04T02:41:34.436Z,0.60
2019-03-04T02:42:34.433Z,0.60
2019-03-04T02:43:34.443Z,0.80
2019-03-04T02:44:34.453Z,0.50
2019-03-04T02:45:34.387Z,0.60
2019-03-04T02:46:34.376Z,0.50
2019-03-04T02:47:34.372Z,0.60
2019-03-04T02:48:34.352Z,0.50
2019-03-04T02:49:34.342Z,0.70
2019-03-04T02:50:34.348Z,0.60
2019-03-04T02:51:34.320Z,0.60
2019-03-04T02:52:34.309Z,0.60
2019-03-04T02:53:34.306Z,0.90
2019-03-04T02:54:34.285Z,0.80
2019-03-04T02:55:34.293Z,0.80
2019-03-04T02:56:34.264Z,0.60
2019-03-04T02:57:34.267Z,0.80
2019-03-04T02:58:34.241Z,0.60
2019-03-04T02:59:34.246Z,0.50
2019-03-04T03:00:34.235Z,0.60
2019-03-04T03:01:34.206Z,0.80
2019-03-04T03:02:34.216Z,0.60
2019-03-04T03:03:34.185Z,0.70
2019-03-04T03:04:34.173Z,0.30
2019-03-04T03:05:34.166Z,0.40
2019-03-04T03:06:34.173Z,0.80
2019-03-04T03:07:34.138Z,0.80
2019-03-04T03:08:34.127Z,0.50
2019-03-04T03:09:34.116Z,0.50
2019-03-04T03:10:34.104Z,0.70
2019-03-04T03:11:34.103Z,0.80
2019-03-04T03:12:34.102Z,0.90
2019-03-04T03:13:34.073Z,0.70
2019-03-04T03:14:34.065Z,0.80
2019-03-04T03:15:34.049Z,0.70
2019-03-04T03:16:34.085Z,0.70
2019-03-04T03:17:34.042Z,0.70
2019-03-04T03:18:34.089Z,0.50
2019-03-04T03:19:34.011Z,0.60
2019-03-04T03:20:33.991Z,0.70
2019-03-04T03:21:33.979Z,0.60
2019-03-04T03:22:34.005Z,0.40
2019-03-04T03:23:33.967Z,0.60
2019-03-04T03:24:33.949Z,0.80
2019-03-04T03:25:33.937Z,0.80
2019-03-04T03:26:33.925Z,0.60
2019-03-04T03:27:33.923Z,0.80
2019-03-04T03:28:33.921Z,0.70
2019-03-04T03:29:33.897Z,0.60
2019-03-04T03:30:33.881Z,0.80
2019-03-04T03:31:33.878Z,0.80
2019-03-04T03:32:33.878Z,0.50
2019-03-04T03:33:33.848Z,0.70
2019-03-04T03:34:33.834Z,0.50
2019-03-04T03:35:33.834Z,0.80
2019-03-04T03:36:33.817Z,0.60
2019-03-04T03:37:33.821Z,0.50
2019-03-04T03:38:33.808Z,0.70
2019-03-04T03:39:33.785Z,1.00
2019-03-04T03:40:33.766Z,0.60
2019-03-04T03:41:33.770Z,0.60
2019-03-04T03:42:33.743Z,0.50
2019-03-04T03:43:33.758Z,0.70
2019-03-04T03:44:33.721Z,0.50
2019-03-04T03:45:33.730Z,0.70
2019-03-04T03:46:33.699Z,0.60
2019-03-04T03:47:33.729Z,0.40
2019-03-04T03:48:33.707Z,0.50
2019-03-04T03:49:33.670Z,0.40
2019-03-04T03:50:33.653Z,0.50
2019-03-04T03:51:33.642Z,0.50
2019-03-04T03:52:33.634Z,0.70
2019-03-04T03:53:33.627Z,0.60
2019-03-04T03:54:33.631Z,0.40
2019-03-04T03:55:33.600Z,0.70
2019-03-04T03:56:33.586Z,0.70
2019-03-04T03:57:33.572Z,0.90
2019-03-04T03:58:33.564Z,0.60
2019-03-04T03:59:33.587Z,0.30
2019-03-04T04:00:33.547Z,0.80
2019-03-04T04:01:33.530Z,0.50
2019-03-04T04:02:33.518Z,0.50
2019-03-04T04:03:33.506Z,0.40
2019-03-04T04:04:33.516Z,0.40
2019-03-04T04:05:33.519Z,0.70
2019-03-04T04:06:33.480Z,0.70
2019-03-04T04:07:33.483Z,0.60
2019-03-04T04:08:33.451Z,0.50
2019-03-04T04:09:33.462Z,0.70
2019-03-04T04:10:33.449Z,0.60
2019-03-04T04:11:33.425Z,0.50
2019-03-04T04:12:33.413Z,0.60
2019-03-04T04:13:33.395Z,0.40
2019-03-04T04:14:33.383Z,0.40
2019-03-04T04:15:33.393Z,0.70
2019-03-04T04:16:33.386Z,0.70
2019-03-04T04:17:33.353Z,0.40
2019-03-04T04:18:33.338Z,0.40
2019-03-04T04:19:33.337Z,0.40
2019-03-04T04:20:33.322Z,0.40
2019-03-04T04:21:33.304Z,0.40
2019-03-04T04:22:33.313Z,0.40
2019-03-04T04:23:33.291Z,0.40
2019-03-04T04:24:33.291Z,0.70
2019-03-04T04:25:33.262Z,0.60
2019-03-04T04:26:33.248Z,0.40
2019-03-04T04:27:33.237Z,0.30
2019-03-04T04:28:33.226Z,0.60
2019-03-04T04:29:33.238Z,0.50
2019-03-04T04:30:33.205Z,0.70
2019-03-04T04:31:33.222Z,0.40
2019-03-04T04:32:33.180Z,0.30
2019-03-04T04:33:33.172Z,0.50
2019-03-04T04:34:33.159Z,0.30
2019-03-04T04:35:33.153Z,0.40
2019-03-04T04:36:33.137Z,0.80
2019-03-04T04:37:33.161Z,0.50
2019-03-04T04:38:33.113Z,0.50
2019-03-04T04:39:33.100Z,0.30
2019-03-04T04:40:33.091Z,0.40
2019-03-04T04:41:33.084Z,0.60
2019-03-04T04:42:33.068Z,0.40
2019-03-04T04:43:33.074Z,0.30
2019-03-04T04:44:33.085Z,0.40
2019-03-04T04:45:33.035Z,0.50
2019-03-04T04:46:33.023Z,0.40
2019-03-04T04:47:33.025Z,0.40
2019-03-04T04:48:33.010Z,0.50
2019-03-04T04:49:32.991Z,0.30
2019-03-04T04:50:32.996Z,0.60
2019-03-04T04:51:32.966Z,0.30
2019-03-04T04:52:32.965Z,0.30
2019-03-04T04:53:32.950Z,0.50
2019-03-04T04:54:32.966Z,0.60
2019-03-04T04:55:32.939Z,0.40
2019-03-04T04:56:32.911Z,0.60
2019-03-04T04:57:32.900Z,0.40
2019-03-04T04:58:32.891Z,0.50
2019-03-04T04:59:32.898Z,0.50
2019-03-04T05:00:32.890Z,0.30
2019-03-04T05:01:32.861Z,0.60
2019-03-04T05:02:32.845Z,0.50
2019-03-04T05:03:32.833Z,0.60
2019-03-04T05:04:32.821Z,0.40
2019-03-04T05:05:32.858Z,0.40
2019-03-04T05:06:32.803Z,0.60
2019-03-04T05:07:32.793Z,0.70
2019-03-04T05:08:32.779Z,0.60
2019-03-04T05:09:32.787Z,0.20
2019-03-04T05:10:32.751Z,0.50
2019-03-04T05:11:32.781Z,0.40
2019-03-04T05:12:32.729Z,0.40
2019-03-04T05:13:32.721Z,0.40
2019-03-04T05:14:32.720Z,0.50
2019-03-04T05:15:32.696Z,0.50
2019-03-04T05:16:32.683Z,0.40
2019-03-04T05:17:32.694Z,0.80
2019-03-04T05:18:32.662Z,0.40
2019-03-04T05:19:32.654Z,0.30
2019-03-04T05:20:32.647Z,0.40
2019-03-04T05:21:32.645Z,0.40
2019-03-04T05:22:32.617Z,0.50
2019-03-04T05:23:32.606Z,0.30
2019-03-04T05:24:32.597Z,0.40
2019-03-04T05:25:32.582Z,0.50
2019-03-04T05:26:32.618Z,0.50
2019-03-04T05:27:32.563Z,0.30
2019-03-04T05:28:32.551Z,0.90
2019-03-04T05:29:32.538Z,0.40
2019-03-04T05:30:32.529Z,0.50
2019-03-04T05:31:32.518Z,0.20
2019-03-04T05:32:32.541Z,0.70
2019-03-04T05:33:32.497Z,0.40
2019-03-04T05:34:32.482Z,0.30
2019-03-04T05:35:32.475Z,0.60
2019-03-04T05:36:32.463Z,0.60
2019-03-04T05:37:32.451Z,0.40
2019-03-04T05:38:32.469Z,0.40
2019-03-04T05:39:32.427Z,0.20
2019-03-04T05:40:32.419Z,0.50
2019-03-04T05:41:32.402Z,0.70
2019-03-04T05:42:32.412Z,0.40
2019-03-04T05:43:32.390Z,0.60
2019-03-04T05:44:32.397Z,0.20
2019-03-04T05:45:32.358Z,0.30
2019-03-04T05:46:32.353Z,0.30
2019-03-04T05:47:32.336Z,0.40
2019-03-04T05:48:32.352Z,0.50
2019-03-04T05:49:32.318Z,0.30
2019-03-04T05:50:32.314Z,0.40
2019-03-04T05:51:32.292Z,0.50
2019-03-04T05:52:32.281Z,0.70
2019-03-04T05:53:32.297Z,0.30
2019-03-04T05:54:32.260Z,0.50
2019-03-04T05:55:32.249Z,0.50
2019-03-04T05:56:32.241Z,0.40
2019-03-04T05:57:32.225Z,0.40
2019-03-04T05:58:32.213Z,0.40
2019-03-04T05:59:32.221Z,0.40
2019-03-04T06:00:32.189Z,0.30
2019-03-04T06:01:32.177Z,0.40
2019-03-04T06:02:32.173Z,0.20
2019-03-04T06:03:32.160Z,0.30
2019-03-04T06:04:32.164Z,0.60
2019-03-04T06:05:32.153Z,0.60
2019-03-04T06:06:32.122Z,0.30
2019-03-04T06:07:32.112Z,0.40
2019-03-04T06:08:32.119Z,0.50
2019-03-04T06:09:32.098Z,0.30
2019-03-04T06:10:32.098Z,0.70
2019-03-04T06:11:32.066Z,0.60
2019-03-04T06:12:32.054Z,0.50
2019-03-04T06:13:32.043Z,0.60
2019-03-04T06:14:32.032Z,0.20
2019-03-04T06:15:32.067Z,0.50
2019-03-04T06:16:32.016Z,0.40
2019-03-04T06:17:32.005Z,0.40
2019-03-04T06:18:31.985Z,0.40
2019-03-04T06:19:31.977Z,0.40
2019-03-04T06:20:31.967Z,0.40
2019-03-04T06:21:31.987Z,0.50
2019-03-04T06:22:31.943Z,0.40
2019-03-04T06:23:31.931Z,0.60
2019-03-04T06:24:31.920Z,0.40
2019-03-04T06:25:31.911Z,0.70
2019-03-04T06:26:31.918Z,0.30
2019-03-04T06:27:31.909Z,0.40
2019-03-04T06:28:31.876Z,0.50
2019-03-04T06:29:31.873Z,0.30
2019-03-04T06:30:31.851Z,0.50
2019-03-04T06:31:31.841Z,0.50
2019-03-04T06:32:31.853Z,0.50
2019-03-04T06:33:31.824Z,0.50
2019-03-04T06:34:31.806Z,0.50
2019-03-04T06:35:31.795Z,0.30
2019-03-04T06:36:31.805Z,0.40
2019-03-04T06:37:31.825Z,0.40
2019-03-04T06:38:31.762Z,0.40
2019-03-04T06:39:31.758Z,0.20
2019-03-04T06:40:31.739Z,0.40
2019-03-04T06:41:31.729Z,0.40
2019-03-04T06:42:31.717Z,0.30
2019-03-04T06:43:31.726Z,0.50
2019-03-04T06:44:31.696Z,0.20
2019-03-04T06:45:31.690Z,0.50
2019-03-04T06:46:31.670Z,0.30
2019-03-04T06:47:31.660Z,0.30
2019-03-04T06:48:31.730Z,0.40
2019-03-04T06:49:31.638Z,0.40
2019-03-04T06:50:31.626Z,0.30
2019-03-04T06:51:31.624Z,0.30
2019-03-04T06:52:31.610Z,0.30
2019-03-04T06:53:31.612Z,0.40
2019-03-04T06:54:31.583Z,0.50
2019-03-04T06:55:31.571Z,0.40
2019-03-04T06:56:31.559Z,0.40
2019-03-04T06:57:31.563Z,0.40
2019-03-04T06:58:31.569Z,0.20
2019-03-04T06:59:31.534Z,0.30
2019-03-04T07:00:31.514Z,0.30
2019-03-04T07:01:31.503Z,0.30
2019-03-04T07:02:31.493Z,0.30
2019-03-04T07:03:31.489Z,0.30
2019-03-04T07:04:31.489Z,0.20
2019-03-04T07:05:31.459Z,0.30
2019-03-04T07:06:31.465Z,0.30
2019-03-04T07:07:31.442Z,0.40
2019-03-04T07:08:31.424Z,0.60
2019-03-04T07:09:31.425Z,0.40
2019-03-04T07:10:31.420Z,0.40
2019-03-04T07:11:31.391Z,0.40
2019-03-04T07:12:31.388Z,0.40
2019-03-04T07:13:31.374Z,0.40
2019-03-04T07:14:31.356Z,0.30
2019-03-04T07:15:31.374Z,0.30
2019-03-04T07:16:32.115Z,0.60
2019-03-04T07:17:31.323Z,0.50
2019-03-04T07:18:31.313Z,0.50
2019-03-04T07:19:31.305Z,0.50
2019-03-04T07:20:31.309Z,0.30
2019-03-04T07:21:31.284Z,0.40
2019-03-04T07:22:31.266Z,0.30
2019-03-04T07:23:31.256Z,0.40
2019-03-04T07:24:31.250Z,0.30
2019-03-04T07:25:31.244Z,0.20
2019-03-04T07:26:31.232Z,0.30
2019-03-04T07:27:31.213Z,0.40
2019-03-04T07:28:31.211Z,0.60
2019-03-04T07:29:31.187Z,0.40
2019-03-04T07:30:31.178Z,0.30
2019-03-04T07:31:31.204Z,0.40
2019-03-04T07:32:31.151Z,0.40
2019-03-04T07:33:31.147Z,0.30
2019-03-04T07:34:31.130Z,0.30
2019-03-04T07:35:31.119Z,0.40
2019-03-04T07:36:31.106Z,0.40
2019-03-04T07:37:31.109Z,0.40
2019-03-04T07:38:31.097Z,0.40
2019-03-04T07:39:31.081Z,0.30
2019-03-04T07:40:31.061Z,0.20
2019-03-04T07:41:31.051Z,0.30
2019-03-04T07:42:31.375Z,0.30
2019-03-04T07:43:31.040Z,0.40
2019-03-04T07:44:31.044Z,0.40
2019-03-04T07:45:31.012Z,0.60
2019-03-04T07:46:30.995Z,0.50
2019-03-04T07:47:30.995Z,0.30
2019-03-04T07:48:30.973Z,0.60
2019-03-04T07:49:30.973Z,0.60
2019-03-04T07:50:30.951Z,0.50
2019-03-04T07:51:30.944Z,0.60
2019-03-04T07:52:30.937Z,0.50
2019-03-04T07:53:30.938Z,0.60
2019-03-04T07:54:30.903Z,0.30
2019-03-04T07:55:30.892Z,0.40
2019-03-04T07:56:30.884Z,0.50
2019-03-04T07:57:30.890Z,0.40
2019-03-04T07:58:30.865Z,0.40
2019-03-04T07:59:30.848Z,0.40
2019-03-04T08:00:30.838Z,0.30
2019-03-04T08:01:30.825Z,0.30
2019-03-04T08:02:30.825Z,0.40
2019-03-04T08:03:30.808Z,0.50
2019-03-04T08:04:30.794Z,0.30
2019-03-04T08:05:30.780Z,0.40
2019-03-04T08:06:30.767Z,0.70
2019-03-04T08:07:30.768Z,0.30
2019-03-04T08:08:30.750Z,0.40
2019-03-04T08:09:30.738Z,0.40
2019-03-04T08:10:30.723Z,0.40
2019-03-04T08:11:30.742Z,0.80
2019-03-04T08:12:30.701Z,0.40
2019-03-04T08:13:30.745Z,0.30
2019-03-04T08:14:30.678Z,0.50
2019-03-04T08:15:30.671Z,0.40
2019-03-04T08:16:30.674Z,0.50
2019-03-04T08:17:30.658Z,0.70
2019-03-04T08:18:30.633Z,0.40
2019-03-04T08:19:30.636Z,0.40
2019-03-04T08:20:30.611Z,0.40
2019-03-04T08:21:30.605Z,0.50
2019-03-04T08:22:30.635Z,0.50
2019-03-04T08:23:30.575Z,0.50
2019-03-04T08:24:30.564Z,0.40
2019-03-04T08:25:30.554Z,0.50
2019-03-04T08:26:30.541Z,0.60
2019-03-04T08:27:30.540Z,0.50
2019-03-04T08:28:30.536Z,0.50
2019-03-04T08:29:30.531Z,0.50
2019-03-04T08:30:30.514Z,0.50
2019-03-04T08:31:30.485Z,0.50
2019-03-04T08:32:30.490Z,0.60
2019-03-04T08:33:30.468Z,0.80
2019-03-04T08:34:31.293Z,0.40
2019-03-04T08:35:30.484Z,0.50
2019-03-04T08:36:30.429Z,0.40
2019-03-04T08:37:30.418Z,0.50
2019-03-04T08:38:30.406Z,0.40
2019-03-04T08:39:30.398Z,0.40
2019-03-04T08:40:30.390Z,0.60
2019-03-04T08:41:30.385Z,0.70
2019-03-04T08:42:30.361Z,0.50
2019-03-04T08:43:30.350Z,0.40
2019-03-04T08:44:31.166Z,0.50
2019-03-04T08:45:30.327Z,0.50
2019-03-04T08:46:30.363Z,0.50
2019-03-04T08:47:30.305Z,0.40
2019-03-04T08:48:30.295Z,0.50
2019-03-04T08:49:30.290Z,0.50
2019-03-04T08:50:30.271Z,0.30
2019-03-04T08:51:30.261Z,0.30
2019-03-04T08:52:30.290Z,0.70
2019-03-04T08:53:31.012Z,0.50
2019-03-04T08:54:30.225Z,0.30
2019-03-04T08:55:30.215Z,0.40
2019-03-04T08:56:30.202Z,0.40
2019-03-04T08:57:30.191Z,0.70
2019-03-04T08:58:30.214Z,0.60
2019-03-04T08:59:30.169Z,0.50
2019-03-04T09:00:30.158Z,0.20
2019-03-04T09:01:31.339Z,0.10
2019-03-04T09:02:30.140Z,0.20
2019-03-04T09:03:30.123Z,0.50
2019-03-04T09:04:30.138Z,0.10
2019-03-04T09:05:30.099Z,0.20
2019-03-04T09:06:30.092Z,0.40
2019-03-04T09:07:30.078Z,0.30
2019-03-04T09:08:30.066Z,0.00
2019-03-04T09:09:30.070Z,0.10
2019-03-04T09:10:30.064Z,0.20
2019-03-04T09:11:30.033Z,0.40
2019-03-04T09:12:30.021Z,0.10
2019-03-04T09:13:30.012Z,0.20
2019-03-04T09:14:30.019Z,0.10
2019-03-04T09:15:29.988Z,0.20
2019-03-04T09:16:29.983Z,0.20
2019-03-04T09:17:29.965Z,0.10
2019-03-04T09:18:31.989Z,0.10
2019-03-04T09:19:29.956Z,0.20
2019-03-04T09:20:29.932Z,0.10
2019-03-04T09:21:29.921Z,0.20
2019-03-04T09:22:29.914Z,0.10
2019-03-04T09:23:29.916Z,0.10
2019-03-04T09:24:29.898Z,0.30
2019-03-04T09:25:30.804Z,0.10
2019-03-04T09:26:29.864Z,0.10
2019-03-04T09:27:29.853Z,0.10
2019-03-04T09:28:29.855Z,0.30
2019-03-04T09:29:29.831Z,0.00
2019-03-04T09:30:29.826Z,0.10
2019-03-04T09:31:29.809Z,0.20
2019-03-04T09:32:29.840Z,0.10
2019-03-04T09:33:29.788Z,0.10
2019-03-04T09:34:29.775Z,0.00
2019-03-04T09:35:29.767Z,0.10
2019-03-04T09:36:29.759Z,0.10
2019-03-04T09:37:29.741Z,0.00
2019-03-04T09:38:29.764Z,0.00
2019-03-04T09:39:29.719Z,0.00
2019-03-04T09:40:29.714Z,0.00
2019-03-04T09:41:29.695Z,0.10
2019-03-04T09:42:29.695Z,0.10
2019-03-04T09:43:29.678Z,0.20
2019-03-04T09:44:29.702Z,0.10
2019-03-04T09:45:38.248Z,0.10
2019-03-04T09:46:30.638Z,0.20
2019-03-04T09:47:29.628Z,0.20
2019-03-04T09:48:29.623Z,0.10
2019-03-04T09:49:29.606Z,0.10
2019-03-04T09:50:29.607Z,0.10
2019-03-04T09:51:29.584Z,0.00
2019-03-04T09:52:29.575Z,0.10
2019-03-04T09:53:38.851Z,0.10
2019-03-04T09:54:30.555Z,0.10
2019-03-04T09:55:29.542Z,0.10
2019-03-04T09:56:29.529Z,0.10
2019-03-04T09:57:29.517Z,0.00
2019-03-04T09:58:29.539Z,0.00
2019-03-04T09:59:30.478Z,0.00
2019-03-04T10:00:29.497Z,0.00
2019-03-04T10:01:29.473Z,0.10
2019-03-04T10:02:29.461Z,0.10
2019-03-04T10:03:29.449Z,0.00
2019-03-04T10:04:29.452Z,0.10
2019-03-04T10:05:29.427Z,0.20
2019-03-04T10:06:29.420Z,0.10
2019-03-04T10:07:29.413Z,0.10
2019-03-04T10:08:32.936Z,0.10
2019-03-04T10:09:29.396Z,0.00
2019-03-04T10:10:29.372Z,0.30
2019-03-04T10:11:29.371Z,0.10
2019-03-04T10:12:29.349Z,0.10
2019-03-04T10:13:29.341Z,0.00
2019-03-04T10:14:29.333Z,0.10
2019-03-04T10:15:29.313Z,0.10
2019-03-04T10:16:29.339Z,0.00
2019-03-04T10:17:29.292Z,0.10
2019-03-04T10:18:29.283Z,0.10
2019-03-04T10:19:29.291Z,0.00
2019-03-04T10:20:29.257Z,0.10
2019-03-04T10:21:29.246Z,0.10
2019-03-04T10:22:29.248Z,0.10
2019-03-04T10:23:29.237Z,0.10
2019-03-04T10:24:29.218Z,0.20
2019-03-04T10:25:29.209Z,0.10
2019-03-04T10:26:29.192Z,0.10
2019-03-04T10:27:29.180Z,0.10
2019-03-04T10:28:29.180Z,0.20
2019-03-04T10:29:29.159Z,0.10
2019-03-04T10:30:29.147Z,0.10
2019-03-04T10:31:29.140Z,0.10
2019-03-04T10:32:29.124Z,0.20
2019-03-04T10:33:29.125Z,0.10
2019-03-04T10:34:29.100Z,0.10
2019-03-04T10:35:29.090Z,0.10
2019-03-04T10:36:29.078Z,0.10
2019-03-04T10:37:29.081Z,0.10
2019-03-04T10:38:29.094Z,0.10
2019-03-04T10:39:29.047Z,0.10
2019-03-04T10:40:29.032Z,0.10
2019-03-04T10:41:29.024Z,0.10
2019-03-04T10:42:29.010Z,0.10
2019-03-04T10:43:29.002Z,0.10
2019-03-04T10:44:29.006Z,0.10
2019-03-04T10:45:28.975Z,0.30
2019-03-04T10:46:28.968Z,0.10
2019-03-04T10:47:28.954Z,0.10
2019-03-04T10:48:28.944Z,0.20
2019-03-04T10:49:28.966Z,0.20
2019-03-04T10:50:28.926Z,0.10
2019-03-04T10:51:28.907Z,0.10
2019-03-04T10:52:28.897Z,0.20
2019-03-04T10:53:28.887Z,0.10
2019-03-04T10:54:28.875Z,0.10
2019-03-04T10:55:28.877Z,0.20
2019-03-04T10:56:28.864Z,0.30
2019-03-04T10:57:28.849Z,0.00
2019-03-04T10:58:28.832Z,0.10
2019-03-04T10:59:28.819Z,0.10
2019-03-04T11:00:28.851Z,0.10
2019-03-04T11:01:30.637Z,0.10
2019-03-04T11:02:28.785Z,0.20
2019-03-04T11:03:28.784Z,0.10
2019-03-04T11:04:28.761Z,0.10
2019-03-04T11:05:28.749Z,0.30
2019-03-04T11:06:28.771Z,0.10
2019-03-04T11:07:28.729Z,0.10
2019-03-04T11:08:28.716Z,0.10
2019-03-04T11:09:28.713Z,0.10
2019-03-04T11:10:28.695Z,0.20
2019-03-04T11:11:30.048Z,0.10
2019-03-04T11:12:28.688Z,0.20
2019-03-04T11:13:28.661Z,0.20
2019-03-04T11:14:28.661Z,0.10
2019-03-04T11:15:28.649Z,0.10
2019-03-04T11:16:28.631Z,0.10
2019-03-04T11:17:28.617Z,0.10
2019-03-04T11:18:28.716Z,0.20
2019-03-04T11:19:28.611Z,0.10
2019-03-04T11:20:28.582Z,0.20
2019-03-04T11:21:28.574Z,0.10
2019-03-04T11:22:28.568Z,0.50
2019-03-04T11:23:28.551Z,0.20
2019-03-04T11:24:28.549Z,0.20
2019-03-04T11:25:28.525Z,0.30
2019-03-04T11:26:28.512Z,0.10
2019-03-04T11:27:28.503Z,0.10
2019-03-04T11:28:28.489Z,0.10
2019-03-04T11:29:28.503Z,0.30
2019-03-04T11:30:28.495Z,0.30
2019-03-04T11:31:28.457Z,0.20
2019-03-04T11:32:28.452Z,0.10
2019-03-04T11:33:28.434Z,0.20
2019-03-04T11:34:28.423Z,0.20
2019-03-04T11:35:28.424Z,0.20
2019-03-04T11:36:28.413Z,0.10
2019-03-04T11:37:28.390Z,0.30
2019-03-04T11:38:28.379Z,0.10
2019-03-04T11:39:28.367Z,0.60
2019-03-04T11:40:28.379Z,0.10
2019-03-04T11:41:28.348Z,0.10
2019-03-04T11:42:28.339Z,0.10
2019-03-04T11:43:28.322Z,0.20
2019-03-04T11:44:28.310Z,0.10
2019-03-04T11:45:28.299Z,0.10
2019-03-04T11:46:28.312Z,0.10
2019-03-04T11:47:28.278Z,0.10
2019-03-04T11:48:28.267Z,0.10
2019-03-04T11:49:28.267Z,0.10
2019-03-04T11:50:28.251Z,0.10
2019-03-04T11:51:28.231Z,0.10
2019-03-04T11:52:28.241Z,0.20
2019-03-04T11:53:28.216Z,0.10
2019-03-04T11:54:28.202Z,0.10
2019-03-04T11:55:28.198Z,0.10
2019-03-04T11:56:28.179Z,0.10
2019-03-04T11:57:28.164Z,0.10
2019-03-04T11:58:28.152Z,0.10
2019-03-04T11:59:28.141Z,0.30
2019-03-04T12:00:28.164Z,0.10
2019-03-04T12:01:28.123Z,0.20
2019-03-04T12:02:28.108Z,0.10
2019-03-04T12:03:28.096Z,0.00
2019-03-04T12:04:28.108Z,0.20
2019-03-04T12:05:28.075Z,0.10
2019-03-04T12:06:28.077Z,0.10
2019-03-04T12:07:28.058Z,0.00
2019-03-04T12:08:28.052Z,0.10
2019-03-04T12:09:28.029Z,0.10
2019-03-04T12:10:28.016Z,0.10
2019-03-04T12:11:37.772Z,0.10
2019-03-04T12:12:28.995Z,0.00
2019-03-04T12:13:27.992Z,0.20
2019-03-04T12:14:27.977Z,0.10
2019-03-04T12:15:27.960Z,0.20
2019-03-04T12:16:27.949Z,0.20
2019-03-04T12:17:27.949Z,0.10
2019-03-04T12:18:27.933Z,0.00
2019-03-04T12:19:28.853Z,0.00
2019-03-04T12:20:27.916Z,0.10
2019-03-04T12:21:27.905Z,0.10
2019-03-04T12:22:27.895Z,0.00
2019-03-04T12:23:27.879Z,0.20
2019-03-04T12:24:27.858Z,0.10
2019-03-04T12:25:27.846Z,0.30
2019-03-04T12:26:27.839Z,0.10
2019-03-04T12:27:27.836Z,0.10
2019-03-04T12:28:27.813Z,0.10
2019-03-04T12:29:27.802Z,0.00
2019-03-04T12:30:27.810Z,0.10
2019-03-04T12:31:28.515Z,0.00
2019-03-04T12:32:27.770Z,0.10
2019-03-04T12:33:27.777Z,0.10
2019-03-04T12:34:27.751Z,0.10
2019-03-04T12:35:27.764Z,0.00
2019-03-04T12:36:27.726Z,0.10
2019-03-04T12:37:27.714Z,0.10
2019-03-04T12:38:27.700Z,0.00
2019-03-04T12:39:27.689Z,0.10
2019-03-04T12:40:27.685Z,0.00
2019-03-04T12:41:27.681Z,0.30
2019-03-04T12:42:27.658Z,0.10
2019-03-04T12:43:27.655Z,0.10
2019-03-04T12:44:27.635Z,0.10
2019-03-04T12:45:34.270Z,0.00
2019-03-04T12:46:28.651Z,0.30
2019-03-04T12:47:27.603Z,0.00
2019-03-04T12:48:27.593Z,0.20
2019-03-04T12:49:27.585Z,0.10
2019-03-04T12:50:27.565Z,0.20
2019-03-04T12:51:27.559Z,0.00
2019-03-04T12:52:27.579Z,0.30
2019-03-04T12:53:36.811Z,0.20
2019-03-04T12:54:28.527Z,0.10
2019-03-04T12:55:27.508Z,0.10
2019-03-04T12:56:27.497Z,0.20
2019-03-04T12:57:27.545Z,0.10
2019-03-04T12:58:27.505Z,0.10
2019-03-04T12:59:27.466Z,0.10
2019-03-04T13:00:27.458Z,0.10
2019-03-04T13:01:27.447Z,0.10
2019-03-04T13:02:27.427Z,0.10
2019-03-04T13:03:27.486Z,0.30
2019-03-04T13:04:27.442Z,0.10
2019-03-04T13:05:27.401Z,0.20
2019-03-04T13:06:27.389Z,0.20
2019-03-04T13:07:27.372Z,0.10
2019-03-04T13:08:27.362Z,0.10
2019-03-04T13:09:27.354Z,0.10
2019-03-04T13:10:27.368Z,0.30
2019-03-04T13:11:27.334Z,0.10
2019-03-04T13:12:27.319Z,0.20
2019-03-04T13:13:27.305Z,0.10
2019-03-04T13:14:27.294Z,0.20
2019-03-04T13:15:27.284Z,0.10
2019-03-04T13:16:27.283Z,0.30
2019-03-04T13:17:27.265Z,0.30
2019-03-04T13:18:27.254Z,0.20